KIER

Details ICAO KIER
Name Natchitoches Rgnl
Region United States
Timezone America/Chicago (UTC-6.0)
Plans Departing 3
Arriving 5
Stats Elevation 121 ft / 37 m (AMSL)
Location 31.736050° -93.099345°
Runways 2
Magnetic Variation 1.000° E
Sunrise 2017-12-15 13:06:24 UTC / 2017-12-15 07:06:24 Local
Sunset 2017-12-15 23:11:43 UTC / 2017-12-15 17:11:43 Local
Advertisement - Login to hide

Runways

ID Width Length Bearing (true) Bearing (mag) Surface Threshold Offset Overrun Length
07 100 ft / 30 m 3,992 ft / 1,217 m 76.40° 75.40° Asphalt 0 ft / 0 m 0 ft / 0 m
17 150 ft / 46 m 5,017 ft / 1,529 m 166.52° 165.52° Asphalt 0 ft / 0 m 0 ft / 0 m
25 100 ft / 30 m 3,992 ft / 1,217 m 256.41° 255.41° Asphalt 0 ft / 0 m 0 ft / 0 m
35 150 ft / 46 m 5,017 ft / 1,529 m 346.52° 345.52° Asphalt 0 ft / 0 m 0 ft / 0 m

Approach Navaids

Runway Type Ident Frequency Range Bearing (true) Bearing (mag) Slope Elevation
35 Localiser IIER 110.50 MHz 18 nm / 33 km 346.52° 345.52° - 121 ft / 37 m (AMSL)

Map

Weather


0- 5 10 15 20 25 30 35+ Temperature / ° C

Clouds and Precipitation
Forecast for 2017-12-16 06:00 UTC. Updated 2 hours ago

Ground ~20,000 ft ~40,000 ft Winds

METAR

KIER 160455Z AUTO 00000KT 10SM CLR 01/00 A3027 RMK AO2 T00070001

TAF

Not found

Frequencies

Recorded 119.02 MHz AWOS 3
Approach 132.05 MHz POLK APP/DEP
Unicom 122.80 MHz CTAF/UNICOM
Warning: Do not use this data for real-world aviation or navigation. No guarantee of current accuracy is given.